createdAt,value
2022-11-01T00:00:51.111Z,78.51
2022-11-01T00:11:26.139Z,78.31
2022-11-01T00:16:34.064Z,78.04
2022-11-01T00:34:07.895Z,78.21
2022-11-01T00:39:15.586Z,78.56
2022-11-01T00:44:39.786Z,78.53
2022-11-01T01:08:47.444Z,78.72
2022-11-01T01:14:04.149Z,78.45
2022-11-01T01:19:34.225Z,78.58
2022-11-01T01:24:56.709Z,78.69
2022-11-01T01:30:13.842Z,78.67
2022-11-01T01:35:27.912Z,79.07
2022-11-01T01:40:39.580Z,78.63
2022-11-01T01:45:46.618Z,79.00
2022-11-01T01:51:04.997Z,79.11
2022-11-01T01:56:11.038Z,78.69
2022-11-01T02:01:31.410Z,78.88
2022-11-01T02:06:47.009Z,79.19
2022-11-01T02:11:53.038Z,79.11
2022-11-01T02:17:27.151Z,79.24
2022-11-01T02:22:53.178Z,79.29
2022-11-01T02:28:41.105Z,79.08
2022-11-01T02:39:22.839Z,79.06
2022-11-01T02:44:48.656Z,79.21
2022-11-01T02:50:00.426Z,79.26
2022-11-01T03:01:00.972Z,79.65
2022-11-01T03:12:12.244Z,79.68
2022-11-01T03:17:50.229Z,79.69
2022-11-01T03:23:08.816Z,79.63
2022-11-01T03:28:34.929Z,79.72
2022-11-01T03:39:40.022Z,79.56
2022-11-01T03:45:14.051Z,79.64
2022-11-01T04:29:55.983Z,79.47
2022-11-01T04:44:44.330Z,79.43
2022-11-01T04:46:49.817Z,79.54
2022-11-01T04:51:46.407Z,79.52
2022-11-01T05:07:09.400Z,79.24
2022-11-01T05:12:21.556Z,79.57
2022-11-01T05:29:35.072Z,79.28
2022-11-01T07:11:31.760Z,79.19
2022-11-01T07:16:31.639Z,79.63
2022-11-01T07:21:28.799Z,79.52
2022-11-01T07:26:25.573Z,79.28
2022-11-01T07:31:22.420Z,79.72
2022-11-01T07:36:19.461Z,79.56
2022-11-01T07:41:16.601Z,79.62
2022-11-01T07:46:13.317Z,79.53
2022-11-01T07:51:09.868Z,79.56
2022-11-01T07:56:07.858Z,79.47
2022-11-01T08:01:04.517Z,79.55
2022-11-01T08:06:01.219Z,79.44
2022-11-01T08:17:36.565Z,79.65
2022-11-01T08:28:50.912Z,79.43
2022-11-01T08:33:47.551Z,79.38
2022-11-01T08:38:53.508Z,78.88
2022-11-01T08:49:50.001Z,78.88
2022-11-01T08:54:46.659Z,79.04
2022-11-01T08:59:43.281Z,78.54
2022-11-01T09:04:39.735Z,78.65
2022-11-01T09:09:36.291Z,78.24
2022-11-01T09:14:33.226Z,78.27
2022-11-01T09:19:29.806Z,78.28
2022-11-01T09:24:31.003Z,78.12
2022-11-01T09:29:27.773Z,78.01
2022-11-01T09:34:24.374Z,77.33
2022-11-01T09:39:22.202Z,77.38
2022-11-01T09:44:26.470Z,76.98
2022-11-01T09:49:27.438Z,76.92
2022-11-01T09:54:25.091Z,76.96
2022-11-01T09:59:31.237Z,76.56
2022-11-01T10:04:37.578Z,76.37
2022-11-01T10:09:57.390Z,75.69
2022-11-01T10:14:54.672Z,75.18
2022-11-01T10:19:52.227Z,74.74
2022-11-01T10:24:57.502Z,74.75
2022-11-01T10:30:11.104Z,74.47
2022-11-01T10:35:30.223Z,74.06
2022-11-01T10:40:54.321Z,73.30
2022-11-01T10:45:54.032Z,73.01
2022-11-01T10:50:51.985Z,73.17
2022-11-01T10:55:53.109Z,72.70
2022-11-01T11:00:49.772Z,71.32
2022-11-01T11:05:47.376Z,69.59
2022-11-01T11:10:44.999Z,68.49
2022-11-01T11:15:48.235Z,67.46
2022-11-01T17:04:07.192Z,60.21
2022-11-01T17:09:24.003Z,60.83
2022-11-01T17:14:50.479Z,60.57
2022-11-01T17:20:22.488Z,60.62
2022-11-01T17:33:02.285Z,61.19
2022-11-01T19:13:44.467Z,63.57
2022-11-01T20:43:59.566Z,62.33
